createdAt,value
2023-04-14T00:02:06.070Z,5.19
2023-04-14T00:07:08.572Z,5.00
2023-04-14T00:12:10.941Z,3.97
2023-04-14T00:17:13.534Z,3.74
2023-04-14T00:22:16.028Z,5.48
2023-04-14T00:27:18.440Z,3.39
2023-04-14T00:32:21.102Z,2.12
2023-04-14T00:37:24.535Z,1.67
2023-04-14T00:42:27.762Z,4.82
2023-04-14T00:47:30.252Z,3.36
2023-04-14T00:52:32.845Z,3.77
2023-04-14T00:57:36.774Z,4.85
2023-04-14T01:02:39.394Z,2.01
2023-04-14T01:07:42.008Z,2.41
2023-04-14T01:13:17.243Z,3.52
2023-04-14T01:18:36.916Z,4.58
2023-04-14T01:24:08.975Z,1.93
2023-04-14T01:29:36.233Z,4.40
2023-04-14T01:34:46.342Z,0.49
2023-04-14T01:39:55.194Z,4.19
2023-04-14T01:45:00.216Z,4.26
2023-04-14T01:50:07.130Z,0.74
2023-04-14T01:55:10.654Z,3.87
2023-04-14T02:00:48.013Z,3.91
2023-04-14T02:05:52.958Z,3.53
2023-04-14T02:10:56.564Z,3.57
2023-04-14T02:16:00.379Z,3.12
2023-04-14T02:21:04.664Z,2.30
2023-04-14T02:26:13.569Z,2.89
2023-04-14T02:31:21.705Z,2.80
2023-04-14T02:36:46.376Z,3.25
2023-04-14T02:41:57.122Z,2.69
2023-04-14T02:47:08.560Z,3.12
2023-04-14T02:52:17.235Z,2.87
2023-04-14T02:57:21.265Z,2.15
2023-04-14T03:02:25.631Z,2.75
2023-04-14T03:07:37.848Z,2.86
2023-04-14T03:12:41.722Z,2.73
2023-04-14T03:17:45.817Z,2.57
2023-04-14T03:22:50.748Z,2.02
2023-04-14T03:27:53.855Z,2.03
2023-04-14T03:33:01.621Z,2.07
2023-04-14T03:38:09.367Z,2.67
2023-04-14T03:43:13.234Z,2.44
2023-04-14T03:48:18.898Z,2.26
2023-04-14T03:53:26.119Z,2.24
2023-04-14T03:58:29.924Z,2.52
2023-04-14T04:03:35.090Z,2.14
2023-04-14T04:08:38.485Z,1.54
2023-04-14T04:13:42.295Z,2.59
2023-04-14T04:18:47.323Z,1.46
2023-04-14T04:23:52.852Z,2.63
2023-04-14T04:28:58.633Z,1.56
2023-04-14T04:34:03.664Z,2.44
2023-04-14T04:39:07.943Z,2.43
2023-04-14T04:44:14.857Z,1.72
2023-04-14T04:49:17.380Z,2.54
2023-04-14T04:54:21.056Z,2.58
2023-04-14T04:59:23.591Z,2.11
2023-04-14T05:04:26.014Z,1.35
2023-04-14T05:09:28.434Z,2.55
2023-04-14T05:14:30.981Z,1.46
2023-04-14T05:19:33.351Z,2.62
2023-04-14T05:24:35.795Z,1.75
2023-04-14T05:29:38.318Z,2.04
2023-04-14T05:34:42.190Z,2.21
2023-04-14T05:39:45.342Z,2.41
2023-04-14T05:44:47.740Z,2.89
2023-04-14T05:49:50.188Z,2.98
2023-04-14T05:54:52.646Z,2.80
2023-04-14T05:59:56.985Z,3.40
2023-04-14T06:05:00.724Z,3.19
2023-04-14T06:10:03.870Z,2.77
2023-04-14T06:15:06.670Z,3.26
2023-04-14T06:20:09.650Z,3.50
2023-04-14T06:25:12.151Z,3.72
2023-04-14T06:30:18.020Z,3.58
2023-04-14T06:35:31.933Z,2.53
2023-04-14T06:40:35.223Z,3.43
2023-04-14T06:45:37.727Z,3.78
2023-04-14T06:50:40.615Z,4.16
2023-04-14T06:55:43.988Z,3.28
2023-04-14T07:00:46.498Z,4.55
2023-04-14T07:05:57.999Z,4.91
2023-04-14T07:11:06.015Z,4.83
2023-04-14T07:16:12.037Z,4.73
2023-04-14T07:21:14.456Z,5.65
2023-04-14T07:26:16.905Z,5.04
2023-04-14T07:31:19.355Z,5.92
2023-04-14T07:36:22.058Z,5.31
2023-04-14T07:41:24.999Z,6.23
2023-04-14T07:46:28.060Z,5.29
2023-04-14T07:51:30.485Z,5.75
2023-04-14T07:56:33.053Z,6.56
2023-04-14T08:01:35.390Z,6.56
2023-04-14T08:06:37.721Z,6.75
2023-04-14T08:11:40.110Z,5.63
2023-04-14T08:16:43.027Z,6.78
2023-04-14T08:21:45.434Z,6.86
2023-04-14T08:26:48.015Z,7.17
2023-04-14T08:31:50.398Z,7.20
2023-04-14T08:36:53.083Z,5.32
2023-04-14T08:41:56.134Z,7.56
2023-04-14T08:46:58.940Z,6.91
2023-04-14T08:52:03.662Z,7.51
2023-04-14T08:57:08.135Z,7.99
2023-04-14T09:02:11.307Z,7.89
2023-04-14T09:07:14.461Z,7.78
2023-04-14T09:12:18.050Z,8.11
2023-04-14T09:17:21.024Z,7.34
2023-04-14T09:22:23.450Z,7.77
2023-04-14T09:27:26.738Z,7.63
2023-04-14T09:32:29.216Z,7.86
2023-04-14T09:37:43.761Z,8.17
2023-04-14T09:42:47.438Z,8.82
2023-04-14T09:48:06.538Z,8.60
2023-04-14T09:53:09.129Z,8.60
2023-04-14T09:58:11.907Z,8.83
2023-04-14T10:03:14.415Z,9.18
2023-04-14T10:08:17.296Z,9.24
2023-04-14T10:13:19.776Z,8.71
2023-04-14T10:18:22.133Z,8.90
2023-04-14T10:23:24.956Z,9.12
2023-04-14T10:28:27.666Z,8.98
2023-04-14T10:33:30.124Z,9.30
2023-04-14T10:38:41.139Z,9.59
2023-04-14T10:43:43.621Z,8.02
2023-04-14T10:48:49.658Z,7.77
2023-04-14T10:53:55.899Z,9.76
2023-04-14T10:58:59.203Z,8.17
2023-04-14T11:04:19.297Z,9.95
2023-04-14T11:09:30.918Z,9.85
2023-04-14T11:14:36.255Z,9.86
2023-04-14T11:19:40.448Z,9.81
2023-04-14T11:24:43.024Z,9.23
2023-04-14T11:29:48.991Z,9.76
2023-04-14T11:34:51.833Z,10.16
2023-04-14T11:39:54.219Z,9.88
2023-04-14T11:45:00.169Z,10.01
2023-04-14T11:50:05.203Z,9.89
2023-04-14T11:55:08.055Z,9.93
2023-04-14T12:00:14.938Z,10.19
2023-04-14T12:05:22.304Z,10.01
2023-04-14T12:10:25.387Z,10.27
2023-04-14T12:15:29.252Z,10.31
2023-04-14T12:21:02.077Z,10.13
2023-04-14T12:26:09.299Z,10.14
2023-04-14T12:31:11.933Z,10.28
2023-04-14T12:36:14.455Z,10.14
2023-04-14T12:41:23.704Z,10.24
2023-04-14T12:46:26.983Z,9.99
2023-04-14T12:51:29.464Z,10.41
2023-04-14T12:56:31.776Z,10.04
2023-04-14T13:01:34.230Z,9.72
2023-04-14T13:06:36.574Z,10.38
2023-04-14T13:11:38.889Z,10.15
2023-04-14T13:16:41.325Z,9.74
2023-04-14T13:21:43.888Z,10.22
2023-04-14T13:26:47.935Z,10.17
2023-04-14T13:31:50.349Z,10.14
2023-04-14T13:36:52.702Z,9.44
2023-04-14T13:41:55.091Z,9.94
2023-04-14T13:46:57.693Z,9.67
2023-04-14T13:52:00.195Z,9.93
2023-04-14T13:57:02.548Z,9.66
2023-04-14T14:02:24.237Z,9.50
2023-04-14T14:07:27.044Z,8.96
2023-04-14T14:12:29.467Z,9.72
2023-04-14T14:17:31.987Z,9.48
2023-04-14T14:22:34.356Z,9.02
2023-04-14T14:27:36.780Z,9.55
2023-04-14T14:32:39.156Z,8.95
2023-04-14T14:37:43.161Z,9.39
2023-04-14T14:42:52.241Z,9.11
2023-04-14T14:47:54.714Z,8.08
2023-04-14T14:52:57.274Z,8.92
2023-04-14T14:57:59.552Z,8.83
2023-04-14T15:03:02.182Z,8.15
2023-04-14T15:08:04.736Z,8.67
2023-04-14T15:13:07.474Z,8.34
2023-04-14T15:18:10.930Z,7.46
2023-04-14T15:23:13.221Z,7.56
2023-04-14T15:28:17.080Z,8.15
2023-04-14T15:33:19.365Z,8.09
2023-04-14T15:38:21.732Z,7.30
2023-04-14T15:43:24.004Z,7.66
2023-04-14T15:48:26.892Z,7.20
2023-04-14T15:53:29.211Z,7.70
2023-04-14T15:58:31.545Z,6.94
2023-04-14T16:03:34.087Z,7.56
2023-04-14T16:08:36.816Z,7.76
2023-04-14T16:13:39.299Z,7.35
2023-04-14T16:18:41.953Z,7.38
2023-04-14T16:23:45.109Z,7.11
2023-04-14T16:28:47.674Z,7.24
2023-04-14T16:33:50.075Z,7.48
2023-04-14T16:38:53.106Z,7.43
2023-04-14T16:43:57.623Z,6.62
2023-04-14T16:49:00.283Z,7.11
2023-04-14T16:54:03.680Z,7.15
2023-04-14T16:59:08.258Z,6.67
2023-04-14T17:04:11.395Z,6.72
2023-04-14T17:09:14.373Z,6.70
2023-04-14T17:14:17.056Z,6.81
2023-04-14T17:19:20.045Z,6.61
2023-04-14T17:24:23.564Z,6.08
2023-04-14T17:29:26.111Z,6.45
2023-04-14T17:34:29.740Z,6.43
2023-04-14T17:39:32.141Z,5.93
2023-04-14T17:44:35.166Z,5.86
2023-04-14T17:49:37.498Z,6.18
2023-04-14T17:54:52.181Z,5.71
2023-04-14T17:59:54.682Z,5.43
2023-04-14T18:05:00.081Z,5.32
2023-04-14T18:10:03.308Z,5.75
2023-04-14T18:15:08.742Z,4.57
2023-04-14T18:20:11.853Z,4.63
2023-04-14T18:25:14.222Z,4.76
2023-04-14T18:30:17.253Z,5.66
2023-04-14T18:35:20.049Z,5.44
2023-04-14T18:40:22.778Z,5.04
2023-04-14T18:45:26.517Z,4.59
2023-04-14T18:50:29.250Z,5.15
2023-04-14T18:55:40.460Z,5.18
2023-04-14T19:00:47.947Z,4.90
2023-04-14T19:05:50.880Z,5.23
2023-04-14T19:10:53.253Z,4.77
2023-04-14T19:16:08.685Z,4.23
2023-04-14T19:21:11.357Z,4.76
2023-04-14T19:26:14.433Z,4.52
2023-04-14T19:31:21.647Z,4.70
2023-04-14T19:36:24.391Z,4.52
2023-04-14T19:41:26.872Z,4.42
2023-04-14T19:46:29.282Z,4.54
2023-04-14T19:51:33.196Z,3.62
2023-04-14T19:56:35.689Z,3.96
2023-04-14T20:01:38.402Z,3.55
2023-04-14T20:06:44.048Z,3.18
2023-04-14T20:11:47.273Z,3.95
2023-04-14T20:16:49.673Z,3.92
2023-04-14T20:21:52.192Z,4.20
2023-04-14T20:26:55.826Z,3.35
2023-04-14T20:31:58.146Z,0.43
2023-04-14T20:37:01.064Z,4.01
2023-04-14T20:42:03.381Z,3.95
2023-04-14T20:47:05.946Z,2.94
2023-04-14T20:52:08.374Z,3.39
2023-04-14T20:57:10.960Z,3.14
2023-04-14T21:02:13.336Z,3.81
2023-04-14T21:07:23.589Z,3.75
2023-04-14T21:12:26.034Z,3.42
2023-04-14T21:17:38.075Z,3.29
2023-04-14T21:22:40.451Z,2.74
2023-04-14T21:27:43.370Z,3.61
2023-04-14T21:32:45.908Z,3.34
2023-04-14T21:37:48.229Z,2.82
2023-04-14T21:42:51.112Z,3.56
2023-04-14T21:47:53.383Z,2.12
2023-04-14T21:52:55.733Z,2.47
2023-04-14T21:57:59.282Z,2.95
2023-04-14T22:03:01.776Z,3.13
2023-04-14T22:08:04.212Z,3.36
2023-04-14T22:13:06.750Z,2.63
2023-04-14T22:18:10.110Z,3.04
2023-04-14T22:23:13.521Z,3.03
2023-04-14T22:28:16.141Z,2.62
2023-04-14T22:33:18.419Z,3.08
2023-04-14T22:38:20.624Z,2.05
2023-04-14T22:43:23.073Z,1.65
2023-04-14T22:48:25.305Z,2.57
2023-04-14T22:53:27.665Z,2.34
2023-04-14T22:58:32.415Z,2.57
2023-04-14T23:03:35.661Z,2.76
2023-04-14T23:08:38.203Z,2.21
2023-04-14T23:13:40.498Z,2.46
2023-04-14T23:18:43.275Z,2.56
2023-04-14T23:23:45.566Z,2.54
2023-04-14T23:28:47.883Z,1.26
2023-04-14T23:33:53.119Z,1.61
2023-04-14T23:38:55.486Z,1.72
2023-04-14T23:43:58.044Z,1.63
2023-04-14T23:49:03.095Z,1.47
2023-04-14T23:54:22.574Z,2.26
2023-04-14T23:59:24.959Z,1.47
